Time;durP1;ratioP1;P1;durP2;ratioP2;P2;SDS_P1;SDS_P2;PMS_P1;PMS_P2;Temp;Humidity;BMP_temperature;BMP_pressure;BME280_temperature;BME280_humidity;BME280_pressure;Samples;Min_cycle;Max_cycle;Signal;HPM_P1;HPM_P2
2022/05/22 07:32:29;;;;;;;;;4.67;4.67;;;;;19.07;51.07;101027.50;5165410;27;45328;-71
2022/05/22 07:34:55;;;;;;;;;4.00;4.00;;;;;19.50;51.04;101062.56;5114586;27;45516;-77
2022/05/22 07:37:21;;;;;;;;;6.00;4.00;;;;;19.71;50.68;101058.44;5114570;27;45539;-78
2022/05/22 07:39:46;;;;;;;;;3.00;3.00;;;;;19.89;50.35;101070.28;5116268;27;45449;-77
2022/05/22 07:42:12;;;;;;;;;4.00;4.00;;;;;20.11;49.89;101079.31;5114543;27;45504;-77
2022/05/22 07:44:40;;;;;;;;;4.00;2.00;;;;;20.29;49.47;101090.31;5114930;27;45340;-77
2022/05/22 07:47:06;;;;;;;;;2.00;2.00;;;;;20.51;49.27;101079.81;5115523;27;45521;-76
2022/05/22 07:52:16;;;;;;;;;2.67;2.67;;;;;20.45;48.22;100982.41;5119187;27;45900;-77
2022/05/22 07:54:42;;;;;;;;;2.67;2.67;;;;;21.21;47.80;101062.28;5114864;27;45469;-78
2022/05/22 07:57:08;;;;;;;;;5.00;4.00;;;;;21.11;46.71;101012.00;5115726;27;45262;-77
2022/05/22 07:59:36;;;;;;;;;5.67;4.67;;;;;21.28;47.13;101027.34;5125486;27;45479;-77
2022/05/22 08:02:03;;;;;;;;;3.00;3.00;;;;;21.31;46.73;101008.59;5135849;27;45431;-74
2022/05/22 08:04:30;;;;;;;;;3.00;3.00;;;;;21.56;46.46;101027.19;5127854;27;45693;-79
2022/05/22 08:06:56;;;;;;;;;3.00;3.00;;;;;21.58;46.01;101001.34;5116916;27;45286;-76
2022/05/22 08:09:22;;;;;;;;;2.67;2.67;;;;;21.87;45.62;101039.31;5115793;27;45354;-77
2022/05/22 08:11:48;;;;;;;;;3.00;3.00;;;;;21.94;45.95;101030.13;5117110;27;45293;-76
2022/05/22 08:14:15;;;;;;;;;5.00;4.00;;;;;21.73;45.46;100977.69;5123105;27;45436;-76
2022/05/22 08:16:45;;;;;;;;;3.67;3.00;;;;;22.25;45.55;101033.38;5118396;27;45475;-78
2022/05/22 08:19:11;;;;;;;;;3.00;3.00;;;;;22.35;44.93;101032.94;5118488;27;45388;-77
2022/05/22 08:21:37;;;;;;;;;4.67;4.00;;;;;22.08;44.96;100968.22;5122878;27;46028;-71
2022/05/22 08:24:03;;;;;;;;;3.00;3.00;;;;;22.17;44.29;100946.50;5126311;27;45519;-79
2022/05/22 08:26:29;;;;;;;;;4.00;3.67;;;;;22.44;44.69;100968.47;5132103;27;45554;-78
2022/05/22 08:28:58;;;;;;;;;3.00;3.00;;;;;22.27;43.89;100939.00;5114521;27;45446;-78
2022/05/22 08:31:23;;;;;;;;;5.00;3.00;;;;;22.44;44.22;100970.28;5114823;27;45366;-76
2022/05/22 08:33:49;;;;;;;;;5.33;3.33;;;;;22.52;44.32;100994.84;5119957;27;45482;-72
2022/05/22 08:36:14;;;;;;;;;5.00;4.00;;;;;22.51;44.65;101003.75;5120470;27;45508;-74
2022/05/22 08:38:40;;;;;;;;;4.33;3.00;;;;;22.50;44.49;100987.84;5114402;27;45302;-71
2022/05/22 08:41:14;;;;;;;;;5.00;5.00;;;;;22.43;44.51;100974.75;5113519;27;45501;-71
2022/05/22 08:44:02;;;;;;;;;5.00;3.67;;;;;22.75;44.69;101000.94;5100706;27;45380;-73
2022/05/22 08:46:35;;;;;;;;;5.00;4.00;;;;;22.81;44.41;101011.38;5100492;27;45493;-74
2022/05/22 08:49:28;;;;;;;;;1.33;1.33;;;;;22.74;43.90;100994.75;5100516;27;45506;-74
2022/05/22 08:52:25;;;;;;;;;3.00;3.00;;;;;22.82;44.41;100992.59;5082717;27;46437;-76
2022/05/22 08:55:00;;;;;;;;;4.00;3.67;;;;;22.86;43.48;101004.03;5099818;27;45375;-74
2022/05/22 09:00:15;;;;;;;;;3.00;3.00;;;;;22.99;43.52;101002.56;5120466;27;45388;-76
2022/05/22 09:02:59;;;;;;;;;6.00;6.00;;;;;22.74;42.89;100956.50;5100420;27;47645;-78
2022/05/22 09:05:29;;;;;;;;;5.00;3.67;;;;;22.98;42.69;100981.22;5095201;27;45369;-75
2022/05/22 09:08:06;;;;;;;;;5.00;5.00;;;;;23.12;42.70;100992.19;5115955;27;45338;-72
2022/05/22 09:10:53;;;;;;;;;4.00;4.00;;;;;23.18;41.92;100993.69;5102731;27;45355;-77
2022/05/22 09:13:45;;;;;;;;;4.00;4.00;;;;;23.07;41.80;100967.50;5079604;27;46085;-76
2022/05/22 09:16:31;;;;;;;;;5.67;4.00;;;;;23.01;41.95;100952.59;5079299;27;45409;-77
2022/05/22 09:19:07;;;;;;;;;4.33;4.00;;;;;23.23;41.87;100975.63;5078888;28;45632;-76
2022/05/22 09:21:56;;;;;;;;;4.00;4.00;;;;;23.32;42.46;100979.69;5079346;27;45353;-77
2022/05/22 09:24:43;;;;;;;;;4.00;3.00;;;;;23.14;42.04;100955.56;5078716;27;45462;-76
2022/05/22 09:27:21;;;;;;;;;3.67;3.00;;;;;22.96;42.11;100902.97;5094843;27;45637;-77
2022/05/22 09:30:06;;;;;;;;;5.00;4.00;;;;;23.44;42.19;100958.59;5119842;27;45477;-77
2022/05/22 09:32:55;;;;;;;;;4.33;4.00;;;;;23.44;41.90;100957.72;5101988;27;45412;-74
2022/05/22 09:35:39;;;;;;;;;6.00;5.00;;;;;23.12;41.17;100906.69;5099137;27;45380;-77
2022/05/22 09:38:42;;;;;;;;;3.00;3.00;;;;;23.36;41.31;100957.22;5099155;27;45381;-77
2022/05/22 09:41:13;;;;;;;;;2.00;2.00;;;;;23.37;40.94;100949.16;5100202;27;46024;-77
2022/05/22 09:43:45;;;;;;;;;4.00;4.00;;;;;23.34;41.02;100951.94;5098952;27;45516;-78
2022/05/22 09:46:37;;;;;;;;;3.00;2.67;;;;;23.22;40.51;100945.38;5098985;27;45495;-79
2022/05/22 09:49:36;;;;;;;;;4.00;4.00;;;;;23.13;40.51;100927.09;5079115;27;45474;-79
2022/05/22 09:52:24;;;;;;;;;5.67;4.00;;;;;23.03;41.37;100921.34;5099470;27;45411;-79
2022/05/22 09:55:07;;;;;;;;;5.67;4.33;;;;;22.95;40.71;100935.97;5096962;27;45562;-80
2022/05/22 09:57:54;;;;;;;;;3.00;3.00;;;;;22.82;40.86;100920.50;5109620;27;45446;-78
2022/05/22 10:00:30;;;;;;;;;4.00;4.00;;;;;22.55;41.26;100877.25;5105070;27;45487;-76
2022/05/22 10:03:08;;;;;;;;;5.00;4.00;;;;;22.63;41.72;100900.91;5078686;27;45469;-80
2022/05/22 10:05:43;;;;;;;;;4.33;4.33;;;;;22.42;41.93;100871.63;5078999;27;45538;-78
2022/05/22 10:08:36;;;;;;;;;4.00;4.00;;;;;22.51;41.94;100878.31;5094238;27;47884;-77
2022/05/22 10:11:31;;;;;;;;;5.00;3.00;;;;;22.02;42.26;100790.66;5077340;28;46129;-79
2022/05/22 10:14:12;;;;;;;;;2.33;2.33;;;;;22.34;42.25;100841.72;5059647;27;45400;-78
2022/05/22 10:16:43;;;;;;;;;3.00;2.67;;;;;22.53;42.67;100862.25;5092912;27;45537;-80
2022/05/22 10:19:18;;;;;;;;;3.00;3.00;;;;;22.62;42.17;100859.16;5100238;27;45441;-78
2022/05/22 10:21:53;;;;;;;;;4.00;4.00;;;;;22.70;42.66;100877.47;5100658;27;45417;-78
2022/05/22 10:24:33;;;;;;;;;5.00;3.00;;;;;22.78;41.95;100878.88;5101241;27;45515;-79
2022/05/22 10:27:36;;;;;;;;;5.33;5.00;;;;;22.76;42.03;100859.38;5101803;27;45229;-79
2022/05/22 10:30:28;;;;;;;;;4.00;3.00;;;;;22.72;42.09;100846.25;5099053;27;45532;-78
2022/05/22 10:33:05;;;;;;;;;5.00;3.00;;;;;22.49;41.90;100808.13;5077914;27;45457;-79
2022/05/22 10:35:39;;;;;;;;;4.00;3.00;;;;;22.73;41.67;100839.94;5078202;27;45456;-77
2022/05/22 10:38:11;;;;;;;;;4.00;4.00;;;;;22.69;41.77;100820.56;5109766;27;45479;-77
2022/05/22 10:43:34;;;;;;;;;4.00;4.00;;;;;22.56;42.55;100790.03;5098432;27;45508;-71
2022/05/22 10:46:03;;;;;;;;;7.00;5.67;;;;;22.11;42.52;100720.03;5098840;27;45335;-80
2022/05/22 10:48:31;;;;;;;;;4.67;4.67;;;;;22.52;42.25;100791.09;5098263;27;45388;-76
2022/05/22 10:51:04;;;;;;;;;4.00;4.00;;;;;22.51;42.47;100794.72;5107530;27;45463;-73
2022/05/22 10:53:40;;;;;;;;;5.67;5.00;;;;;21.62;42.64;100628.97;5117937;27;45534;-71
2022/05/22 10:56:17;;;;;;;;;4.00;3.00;;;;;22.23;42.92;100738.19;5121038;27;45318;-72
2022/05/22 10:59:02;;;;;;;;;4.33;3.67;;;;;22.24;43.66;100739.03;5118688;27;45625;-71
2022/05/22 11:01:39;;;;;;;;;6.00;6.00;;;;;22.42;43.92;100763.97;5120861;27;46763;-70
2022/05/22 11:04:14;;;;;;;;;5.00;4.00;;;;;22.36;44.52;100765.16;5104873;27;45456;-75
2022/05/22 11:07:00;;;;;;;;;4.00;4.00;;;;;22.34;44.88;100768.81;5118846;27;45379;-73
2022/05/22 11:09:33;;;;;;;;;4.33;4.33;;;;;22.18;45.16;100749.94;5122739;27;45594;-73
2022/05/22 11:12:08;;;;;;;;;4.00;4.00;;;;;22.31;45.43;100790.31;5108493;27;46271;-77
2022/05/22 11:14:35;;;;;;;;;4.67;4.33;;;;;21.79;45.83;100705.50;5117664;27;46459;-76
2022/05/22 11:17:17;;;;;;;;;5.00;3.00;;;;;22.13;47.72;100762.63;5112605;27;45500;-76
2022/05/22 11:19:44;;;;;;;;;4.00;4.00;;;;;22.11;47.18;100780.50;5114155;27;45298;-75
2022/05/22 11:22:19;;;;;;;;;4.00;4.00;;;;;22.34;48.59;100807.03;5101293;27;45392;-75
2022/05/22 11:25:04;;;;;;;;;3.00;3.00;;;;;22.34;48.68;100796.38;5140300;27;45396;-74
2022/05/22 11:27:44;;;;;;;;;5.00;5.00;;;;;22.31;48.39;100809.00;5131068;27;45346;-74
2022/05/22 11:30:41;;;;;;;;;4.00;4.00;;;;;22.19;48.57;100778.38;5103226;27;45565;-74
2022/05/22 11:33:32;;;;;;;;;5.33;3.00;;;;;21.98;48.20;100738.41;5098692;27;45421;-75
2022/05/22 11:36:24;;;;;;;;;4.33;4.33;;;;;21.77;48.08;100713.56;5098314;27;45510;-75
2022/05/22 11:38:59;;;;;;;;;5.67;5.00;;;;;22.29;48.33;100790.38;5108435;27;45499;-79
2022/05/22 11:41:35;;;;;;;;;5.00;5.00;;;;;22.10;48.36;100742.31;5108075;27;45505;-77
2022/05/22 11:44:27;;;;;;;;;4.67;4.67;;;;;22.36;47.74;100769.63;5097892;27;45460;-75
2022/05/22 11:46:53;;;;;;;;;5.67;4.00;;;;;22.55;47.85;100783.84;5081232;28;45335;-70
2022/05/22 11:49:29;;;;;;;;;4.00;4.00;;;;;22.62;47.63;100773.72;5107262;27;45528;-74
2022/05/22 11:55:14;;;;;;;;;6.00;4.67;;;;;22.54;47.36;100719.84;5097264;27;45812;-72
2022/05/22 11:57:52;;;;;;;;;5.00;5.00;;;;;22.14;46.60;100653.22;5097291;27;45299;-73
2022/05/22 12:00:38;;;;;;;;;6.00;5.00;;;;;22.54;47.35;100718.06;5097200;27;45472;-73
2022/05/22 12:03:20;;;;;;;;;7.00;6.00;;;;;22.86;46.34;100756.53;5096412;27;45899;-76
2022/05/22 12:06:01;;;;;;;;;4.00;4.00;;;;;23.09;47.04;100773.28;5097135;27;45593;-75
2022/05/22 12:08:29;;;;;;;;;8.33;5.00;;;;;23.18;48.21;100777.28;5096972;27;45476;-72
2022/05/22 12:11:11;;;;;;;;;6.00;5.00;;;;;23.22;47.61;100768.16;5096936;27;45478;-73
2022/05/22 12:13:49;;;;;;;;;6.00;6.00;;;;;23.08;46.33;100739.47;5097192;27;45339;-76
2022/05/22 12:16:27;;;;;;;;;5.00;5.00;;;;;23.23;46.24;100762.75;5095416;27;47938;-72
2022/05/22 12:18:55;;;;;;;;;7.33;5.00;;;;;23.26;45.71;100767.94;5099817;27;45426;-76
2022/05/22 12:21:51;;;;;;;;;5.00;5.00;;;;;23.27;45.81;100777.66;5100702;27;45407;-76
2022/05/22 12:24:33;;;;;;;;;9.00;5.00;;;;;23.29;45.98;100777.59;5100576;27;45488;-74
2022/05/22 12:27:03;;;;;;;;;4.00;4.00;;;;;23.28;45.32;100775.88;5099360;27;45437;-74
2022/05/22 12:29:42;;;;;;;;;7.00;6.00;;;;;23.02;44.60;100742.47;5100229;27;45300;-73
2022/05/22 12:32:25;;;;;;;;;5.00;5.00;;;;;23.17;44.56;100767.53;5100079;27;45563;-73
2022/05/22 12:34:57;;;;;;;;;5.67;5.00;;;;;23.13;44.35;100753.44;5100922;27;45455;-78
2022/05/22 12:37:35;;;;;;;;;6.33;5.00;;;;;22.88;43.48;100702.19;5100656;27;45605;-77
2022/05/22 12:40:22;;;;;;;;;7.00;6.00;;;;;23.24;43.20;100753.78;5098807;27;45509;-75
2022/05/22 12:42:52;;;;;;;;;5.00;5.00;;;;;23.21;42.42;100743.25;5100324;27;45394;-78
2022/05/22 12:45:21;;;;;;;;;5.33;5.33;;;;;23.20;42.72;100746.00;5100302;27;45429;-76
2022/05/22 12:47:50;;;;;;;;;7.33;5.33;;;;;23.19;42.80;100741.59;5100162;27;45593;-78
2022/05/22 12:50:43;;;;;;;;;6.33;5.33;;;;;23.12;42.21;100740.19;5100657;27;45409;-75
2022/05/22 12:53:36;;;;;;;;;8.00;6.00;;;;;23.17;42.64;100749.69;5101732;27;45460;-75
2022/05/22 12:56:29;;;;;;;;;6.00;5.00;;;;;22.94;42.50;100716.06;5098888;27;45435;-75
2022/05/22 12:59:05;;;;;;;;;6.00;6.00;;;;;23.10;42.92;100756.28;5100133;27;45966;-76
2022/05/22 13:01:39;;;;;;;;;6.00;6.00;;;;;23.11;42.85;100746.47;5115952;27;45486;-75
2022/05/22 13:04:22;;;;;;;;;6.00;5.00;;;;;22.92;42.93;100714.44;5100115;27;45372;-71
2022/05/22 13:07:07;;;;;;;;;4.00;4.00;;;;;23.12;42.83;100754.41;5100403;27;45575;-70
2022/05/22 13:09:55;;;;;;;;;5.00;5.00;;;;;23.09;42.66;100743.88;5099913;27;46089;-75
2022/05/22 13:12:31;;;;;;;;;5.00;4.00;;;;;22.91;42.75;100728.72;5099852;27;45594;-79
2022/05/22 13:15:16;;;;;;;;;6.00;4.67;;;;;23.02;43.26;100746.00;5100188;27;45426;-77
2022/05/22 13:18:02;;;;;;;;;4.00;4.00;;;;;23.04;42.80;100732.53;5100225;27;45372;-77
2022/05/22 13:20:45;;;;;;;;;5.67;5.00;;;;;22.91;42.46;100699.34;5098410;27;46686;-78
2022/05/22 13:23:33;;;;;;;;;4.33;4.00;;;;;22.62;42.16;100658.94;5099934;27;45352;-77
2022/05/22 13:26:08;;;;;;;;;6.00;6.00;;;;;22.79;42.86;100703.50;5099471;27;45303;-77
2022/05/22 13:28:42;;;;;;;;;5.00;5.00;;;;;22.98;43.33;100723.03;5100808;27;45471;-75
2022/05/22 13:31:07;;;;;;;;;6.33;5.33;;;;;23.00;43.21;100720.31;5101080;27;45477;-76
2022/05/22 13:33:42;;;;;;;;;9.00;5.00;;;;;22.73;43.32;100674.41;5100164;27;45328;-73
2022/05/22 13:36:26;;;;;;;;;3.00;3.00;;;;;22.86;43.99;100687.09;5099855;27;45373;-76
2022/05/22 13:38:59;;;;;;;;;6.67;6.00;;;;;23.03;43.85;100710.31;5098114;27;45618;-76
2022/05/22 13:42:08;;;;;;;;;6.00;6.00;;;;;23.05;43.68;100718.25;5099127;27;46490;-71
2022/05/22 13:45:01;;;;;;;;;5.00;4.00;;;;;23.08;43.47;100707.41;5099395;27;45389;-73
2022/05/22 13:47:58;;;;;;;;;6.33;5.00;;;;;23.08;43.52;100702.06;5115205;27;45442;-70
2022/05/22 13:53:43;;;;;;;;;6.33;6.00;;;;;23.13;45.98;100700.03;5098817;27;45397;-75
2022/05/22 13:56:14;;;;;;;;;4.33;4.00;;;;;22.83;45.73;100659.69;5114763;27;45376;-72
2022/05/22 13:58:42;;;;;;;;;7.67;7.00;;;;;22.63;45.24;100618.81;5099224;27;45274;-73
2022/05/22 14:01:17;;;;;;;;;7.00;6.00;;;;;23.03;44.21;100694.28;5115003;27;45475;-75
2022/05/22 14:03:48;;;;;;;;;7.00;5.00;;;;;22.83;43.99;100675.72;5098815;27;46598;-72
2022/05/22 14:06:22;;;;;;;;;6.00;6.00;;;;;22.24;44.06;100584.31;5114712;27;45518;-72
2022/05/22 14:08:54;;;;;;;;;7.00;5.33;;;;;22.90;44.26;100690.47;5099043;27;45459;-72
2022/05/22 14:11:25;;;;;;;;;4.33;4.33;;;;;22.97;44.42;100683.91;5099238;27;45324;-69
2022/05/22 14:13:57;;;;;;;;;5.00;5.00;;;;;23.01;43.75;100672.13;5100161;27;46499;-71
2022/05/22 14:16:28;;;;;;;;;4.00;4.00;;;;;23.10;44.39;100664.59;5099466;27;45871;-73
2022/05/22 14:19:08;;;;;;;;;5.00;5.00;;;;;23.17;44.66;100666.88;5102323;27;45515;-77
2022/05/22 14:21:39;;;;;;;;;5.33;4.67;;;;;23.08;44.71;100632.59;5102305;27;45480;-74
2022/05/22 14:27:30;;;;;;;;;4.33;4.33;;;;;23.49;43.99;100651.84;5099977;27;45467;-75
2022/05/22 14:30:11;;;;;;;;;8.00;6.00;;;;;23.58;43.90;100626.41;5104449;27;45244;-76
2022/05/22 14:32:56;;;;;;;;;4.00;4.00;;;;;23.75;43.54;100628.19;5113055;27;45367;-77
2022/05/22 14:35:27;;;;;;;;;7.67;6.33;;;;;23.97;42.84;100635.91;5100402;27;46451;-71
2022/05/22 14:37:58;;;;;;;;;8.33;6.33;;;;;24.02;42.76;100633.84;5114843;27;45586;-74
2022/05/22 14:40:32;;;;;;;;;8.33;8.33;;;;;24.15;42.49;100625.13;5098014;27;45426;-76
2022/05/22 14:43:03;;;;;;;;;7.00;7.00;;;;;23.66;42.94;100530.59;5097711;27;45609;-77
2022/05/22 14:45:36;;;;;;;;;6.00;6.00;;;;;24.45;43.06;100626.03;5098542;27;45378;-76
2022/05/22 14:48:11;;;;;;;;;4.33;4.33;;;;;24.57;42.77;100618.28;5098501;27;45439;-73
2022/05/22 14:50:49;;;;;;;;;7.00;5.33;;;;;24.54;42.52;100609.47;5114215;27;45455;-75
2022/05/22 14:53:25;;;;;;;;;4.33;4.33;;;;;24.61;43.50;100617.16;5096789;27;45405;-75
2022/05/22 14:56:14;;;;;;;;;4.33;4.33;;;;;24.49;42.27;100584.81;5098384;27;45344;-77
2022/05/22 14:58:56;;;;;;;;;7.00;4.00;;;;;24.62;42.86;100592.09;5097829;27;45322;-75
2022/05/22 15:01:40;;;;;;;;;4.00;4.00;;;;;24.52;42.42;100573.03;5098206;27;45331;-76
2022/05/22 15:04:11;;;;;;;;;3.00;3.00;;;;;24.72;42.72;100585.25;5098278;27;45318;-78
2022/05/22 15:06:57;;;;;;;;;5.00;4.00;;;;;24.67;41.39;100582.84;5098211;27;45540;-74
2022/05/22 15:09:30;;;;;;;;;7.00;6.00;;;;;24.50;40.91;100574.94;5098602;27;45327;-76
2022/05/22 15:11:55;;;;;;;;;6.00;5.33;;;;;24.25;41.19;100548.69;5098625;27;45408;-76
2022/05/22 15:14:29;;;;;;;;;6.00;5.33;;;;;24.24;41.32;100563.91;5099100;27;45338;-71
2022/05/22 15:16:57;;;;;;;;;4.00;4.00;;;;;24.21;41.64;100564.09;5102558;27;45474;-74
2022/05/22 15:25:33;;;;;;;;;7.67;5.33;;;;;24.01;41.79;100562.53;5099456;27;45408;-77
2022/05/22 15:28:15;;;;;;;;;4.33;4.33;;;;;23.92;42.15;100558.59;5113837;27;48217;-75
2022/05/22 15:30:54;;;;;;;;;5.67;3.67;;;;;23.72;41.85;100540.09;5097646;27;45317;-78
2022/05/22 15:33:20;;;;;;;;;5.00;4.67;;;;;23.58;42.44;100518.59;5097799;27;45451;-78
2022/05/22 15:36:08;;;;;;;;;4.00;4.00;;;;;23.74;42.40;100526.69;5098774;27;45775;-77
2022/05/22 15:38:51;;;;;;;;;3.00;3.00;;;;;23.75;42.04;100507.00;5097882;27;45395;-76
2022/05/22 15:41:46;;;;;;;;;3.67;3.00;;;;;24.00;42.05;100533.22;5098001;27;45181;-77
2022/05/22 15:44:15;;;;;;;;;4.00;4.00;;;;;23.97;41.52;100528.91;5097981;27;45381;-78
2022/05/22 15:46:54;;;;;;;;;5.67;5.00;;;;;23.92;42.13;100534.53;5099761;27;45310;-78
2022/05/22 15:52:22;;;;;;;;;5.00;4.00;;;;;24.03;41.50;100522.34;5097794;27;45367;-78
2022/05/22 15:54:48;;;;;;;;;4.00;4.00;;;;;24.11;41.70;100525.44;5101187;27;45322;-78
2022/05/22 15:57:15;;;;;;;;;9.00;5.00;;;;;24.08;41.95;100505.09;5101345;27;45221;-77
2022/05/22 15:59:40;;;;;;;;;3.33;3.33;;;;;24.21;41.26;100513.25;5101169;27;45429;-79
2022/05/22 16:02:30;;;;;;;;;7.00;5.00;;;;;24.28;41.45;100500.38;5101066;27;45234;-78
2022/05/22 16:04:56;;;;;;;;;4.00;4.00;;;;;24.19;41.59;100472.34;5101449;27;45452;-77
2022/05/22 16:07:22;;;;;;;;;4.33;4.33;;;;;24.48;41.43;100507.25;5101292;27;45378;-79
2022/05/22 16:09:48;;;;;;;;;4.00;4.00;;;;;24.55;40.88;100506.78;5098881;27;48158;-77
2022/05/22 16:12:20;;;;;;;;;3.00;3.00;;;;;24.65;40.85;100488.34;5100524;27;45451;-78
2022/05/22 16:14:49;;;;;;;;;5.67;3.00;;;;;24.67;40.69;100480.22;5099072;27;45491;-77
2022/05/22 16:17:20;;;;;;;;;4.00;4.00;;;;;24.46;40.43;100434.16;5099454;27;45645;-77
2022/05/22 16:19:53;;;;;;;;;5.67;4.33;;;;;24.49;40.71;100428.66;5100604;27;45536;-78
2022/05/22 16:22:19;;;;;;;;;3.00;3.00;;;;;24.85;40.07;100484.47;5100543;27;45317;-76
2022/05/22 16:24:44;;;;;;;;;4.00;4.00;;;;;24.83;39.69;100469.44;5100726;27;45447;-75
2022/05/22 16:27:10;;;;;;;;;5.00;5.00;;;;;24.62;40.48;100431.44;5100863;27;45416;-77
2022/05/22 16:29:36;;;;;;;;;5.00;4.00;;;;;24.71;40.08;100444.28;5100180;27;45501;-75
2022/05/22 16:32:03;;;;;;;;;6.00;4.33;;;;;24.92;40.32;100464.38;5100126;27;45366;-77
2022/05/22 16:34:32;;;;;;;;;4.00;4.00;;;;;24.73;39.82;100426.31;5100725;27;45689;-76
2022/05/22 16:36:59;;;;;;;;;3.00;3.00;;;;;24.54;40.21;100384.59;5101172;27;45443;-77
2022/05/22 16:39:29;;;;;;;;;3.67;3.67;;;;;24.91;40.03;100440.34;5101170;27;45462;-76
2022/05/22 16:41:54;;;;;;;;;5.67;3.00;;;;;24.95;40.15;100448.09;5100822;27;45432;-74
2022/05/22 16:44:20;;;;;;;;;3.00;3.00;;;;;24.93;40.25;100441.97;5100181;27;45530;-76
2022/05/22 16:46:49;;;;;;;;;3.33;3.33;;;;;24.89;40.11;100432.44;5100409;27;45277;-76
2022/05/22 16:54:46;;;;;;;;;4.00;4.00;;;;;24.50;40.63;100401.78;5100272;27;45176;-77
2022/05/22 16:57:12;;;;;;;;;3.75;3.75;;;;;24.59;40.53;100420.94;5100179;27;45464;-77
2022/05/22 16:59:38;;;;;;;;;4.33;4.00;;;;;24.53;40.69;100420.34;5099781;27;46202;-76
2022/05/22 17:02:06;;;;;;;;;5.00;3.67;;;;;24.47;40.92;100420.72;5100009;27;45273;-77
2022/05/22 17:04:32;;;;;;;;;5.00;4.00;;;;;24.31;40.92;100388.63;5098191;27;45357;-71
2022/05/22 17:07:02;;;;;;;;;4.00;4.00;;;;;24.39;41.21;100412.25;5116960;27;45581;-76
2022/05/22 17:09:37;;;;;;;;;4.33;4.33;;;;;23.80;41.19;100326.63;5103253;27;46117;-78
2022/05/22 17:12:05;;;;;;;;;3.00;3.00;;;;;24.31;41.14;100420.75;5108339;27;45419;-76
2022/05/22 17:14:33;;;;;;;;;5.00;5.00;;;;;24.23;41.38;100416.84;5113262;27;44832;-77
2022/05/22 17:17:01;;;;;;;;;6.00;4.00;;;;;24.30;41.61;100432.41;5122347;27;45422;-74
2022/05/22 17:19:28;;;;;;;;;4.33;4.33;;;;;23.97;41.85;100378.25;5101771;27;46491;-78
2022/05/22 17:22:01;;;;;;;;;4.67;4.33;;;;;24.23;41.53;100427.53;5100910;27;45412;-78
2022/05/22 17:24:30;;;;;;;;;8.00;5.00;;;;;24.10;42.36;100420.22;5101372;27;45436;-78
2022/05/22 17:26:57;;;;;;;;;4.33;4.33;;;;;23.32;42.67;100309.81;5102149;27;45560;-77
2022/05/22 17:29:24;;;;;;;;;6.00;4.67;;;;;23.68;42.48;100383.44;5100917;27;45477;-77
2022/05/22 17:31:50;;;;;;;;;3.00;3.00;;;;;23.54;42.82;100349.53;5102072;27;45383;-73
2022/05/22 17:34:16;;;;;;;;;4.00;4.00;;;;;23.92;42.54;100426.69;5101940;27;45344;-74
2022/05/22 17:36:43;;;;;;;;;6.00;6.00;;;;;23.64;42.69;100401.50;5102205;27;45464;-75
2022/05/22 17:39:11;;;;;;;;;4.00;3.00;;;;;23.42;43.00;100360.91;5102222;27;46214;-74
2022/05/22 17:41:36;;;;;;;;;6.67;4.67;;;;;23.67;42.97;100395.97;5102923;27;45276;-70
2022/05/22 17:44:02;;;;;;;;;3.33;3.33;;;;;23.73;43.03;100412.59;5104142;27;45451;-70
2022/05/22 17:46:28;;;;;;;;;5.67;5.67;;;;;23.77;43.02;100412.38;5102769;27;45511;-70
2022/05/22 17:48:53;;;;;;;;;0.00;0.00;;;;;23.62;43.17;100403.38;5100667;27;45943;-70
2022/05/22 17:51:22;;;;;;;;;4.67;4.67;;;;;23.61;43.00;100415.06;5100133;27;45529;-70
2022/05/22 17:53:48;;;;;;;;;5.67;4.33;;;;;23.62;43.19;100435.47;5100128;27;45372;-70
2022/05/22 17:56:14;;;;;;;;;4.67;4.00;;;;;23.48;43.18;100419.34;5100115;27;45199;-70
2022/05/22 17:58:40;;;;;;;;;3.00;3.00;;;;;23.50;43.47;100429.00;5094072;27;45396;-77
2022/05/22 18:01:06;;;;;;;;;7.00;4.00;;;;;23.52;43.75;100431.63;5087038;27;45511;-69
2022/05/22 18:03:33;;;;;;;;;4.00;4.00;;;;;23.39;44.47;100394.00;5079785;27;45480;-79
2022/05/22 18:05:58;;;;;;;;;2.67;2.67;;;;;23.21;43.95;100361.19;5079425;27;45406;-76
2022/05/22 18:08:30;;;;;;;;;3.67;3.67;;;;;23.33;44.14;100366.78;5078527;27;45435;-78
2022/05/22 18:16:28;;;;;;;;;4.00;4.00;;;;;23.71;44.67;100396.66;5077374;28;45266;-77
2022/05/22 18:18:54;;;;;;;;;7.00;4.00;;;;;23.78;43.98;100402.56;5093899;27;47750;-79
2022/05/22 18:21:33;;;;;;;;;4.67;4.67;;;;;23.68;44.10;100384.34;5082376;27;45421;-80
2022/05/22 18:26:57;;;;;;;;;4.33;4.33;;;;;23.57;43.71;100368.06;5089913;27;46111;-78
2022/05/22 18:29:26;;;;;;;;;7.00;6.00;;;;;22.92;43.43;100284.47;5094208;27;46442;-77
2022/05/22 18:31:53;;;;;;;;;12.00;12.00;;;;;23.44;43.87;100377.72;5096284;27;45956;-76
2022/05/22 18:34:19;;;;;;;;;230.75;189.25;;;;;23.26;45.08;100368.94;5095209;27;45975;-75
2022/05/22 18:36:49;;;;;;;;;118.67;105.00;;;;;23.37;46.22;100393.25;5096624;27;45511;-77
2022/05/22 18:39:14;;;;;;;;;66.75;52.25;;;;;22.65;45.38;100267.25;5096293;27;45527;-76
2022/05/22 18:41:41;;;;;;;;;35.00;28.67;;;;;23.40;47.63;100385.06;5096013;27;45467;-75
2022/05/22 18:44:13;;;;;;;;;22.00;19.00;;;;;23.44;47.01;100391.06;5095749;27;45816;-74
2022/05/22 18:46:42;;;;;;;;;13.00;11.00;;;;;23.45;46.23;100374.09;5096628;27;45430;-75
2022/05/22 18:49:10;;;;;;;;;13.00;11.67;;;;;23.44;46.60;100357.22;5095070;27;46134;-76
2022/05/22 18:51:40;;;;;;;;;8.33;7.67;;;;;23.42;45.47;100355.56;5112472;27;45298;-79
2022/05/22 18:54:06;;;;;;;;;8.00;7.33;;;;;23.28;45.36;100346.53;5096260;27;45422;-75
2022/05/22 18:56:40;;;;;;;;;9.00;8.00;;;;;23.33;45.52;100356.09;5089228;27;45583;-75
2022/05/22 18:59:18;;;;;;;;;10.00;7.67;;;;;23.23;45.82;100377.13;5095771;27;45863;-73
2022/05/22 19:01:46;;;;;;;;;6.00;6.00;;;;;23.25;45.83;100373.44;5096703;27;45421;-77
2022/05/22 19:04:21;;;;;;;;;7.33;7.00;;;;;23.16;45.96;100365.06;5098456;27;45347;-76
2022/05/22 19:06:48;;;;;;;;;6.67;6.00;;;;;23.03;46.41;100355.06;5104559;27;45518;-75
2022/05/22 19:09:14;;;;;;;;;7.00;7.00;;;;;23.05;46.46;100365.66;5104662;27;46589;-75
2022/05/22 19:11:40;;;;;;;;;10.00;7.00;;;;;22.86;46.44;100347.97;5105290;27;45539;-73
2022/05/22 19:14:07;;;;;;;;;6.00;6.00;;;;;22.80;46.75;100351.00;5101744;27;45495;-75
2022/05/22 19:16:43;;;;;;;;;6.33;5.00;;;;;22.80;46.28;100347.44;5094523;27;45827;-75
2022/05/22 19:19:12;;;;;;;;;7.00;7.00;;;;;22.86;46.91;100369.31;5110726;27;47029;-67
2022/05/22 19:21:38;;;;;;;;;5.00;5.00;;;;;22.99;46.80;100395.38;5112610;27;45402;-76
2022/05/22 19:24:08;;;;;;;;;7.00;7.00;;;;;22.88;46.99;100389.75;5100151;27;45591;-69
2022/05/22 19:26:37;;;;;;;;;8.00;7.00;;;;;22.93;47.06;100393.03;5091276;27;45341;-75
2022/05/22 19:29:07;;;;;;;;;11.67;11.00;;;;;22.86;46.95;100390.69;5095441;27;46050;-70
2022/05/22 19:31:44;;;;;;;;;14.67;11.67;;;;;22.67;47.08;100357.06;5095611;27;45746;-74
2022/05/22 19:34:11;;;;;;;;;14.33;11.33;;;;;22.79;47.40;100399.97;5095578;27;45176;-72
2022/05/22 19:36:43;;;;;;;;;11.00;7.00;;;;;22.77;46.85;100409.88;5099574;27;45301;-69
2022/05/22 19:39:09;;;;;;;;;6.00;2.00;;;;;22.65;47.39;100408.72;5090146;27;45481;-70
2022/05/22 19:44:30;;;;;;;;;6.00;5.00;;;;;22.18;47.92;100352.50;5094870;27;45297;-75
2022/05/22 19:47:04;;;;;;;;;4.00;4.00;;;;;22.30;47.97;100375.03;5095919;27;45419;-74
2022/05/22 19:49:33;;;;;;;;;6.00;6.00;;;;;22.39;48.08;100386.09;5094874;27;46711;-74
2022/05/22 19:51:59;;;;;;;;;6.67;6.00;;;;;22.29;48.26;100370.66;5095704;27;45454;-73
2022/05/22 20:00:35;;;;;;;;;7.33;7.33;;;;;22.32;48.77;100392.69;5094795;27;45791;-75
2022/05/22 20:03:08;;;;;;;;;7.00;7.00;;;;;22.19;49.05;100370.25;5083093;27;45618;-74
2022/05/22 20:05:38;;;;;;;;;7.00;7.00;;;;;22.25;48.93;100382.44;5086613;27;45393;-73
2022/05/22 20:08:23;;;;;;;;;8.00;6.67;;;;;22.21;49.08;100377.25;5083847;27;45342;-75
2022/05/22 20:10:49;;;;;;;;;7.00;6.00;;;;;21.89;49.22;100328.22;5082253;27;45763;-72
2022/05/22 20:13:18;;;;;;;;;9.00;7.00;;;;;21.65;49.15;100289.50;5085044;27;45480;-74
2022/05/22 20:15:46;;;;;;;;;6.00;6.00;;;;;21.85;49.27;100310.63;5085296;27;45513;-73
2022/05/22 20:18:12;;;;;;;;;6.00;5.00;;;;;22.23;48.94;100359.38;5083019;27;45552;-71